sensor_id;sensor_type;location;lat;lon;timestamp;P1;durP1;ratioP1;P2;durP2;ratioP2
72891;SDS011;61032;50.782;6.818;2022-08-19T00:00:15;8.25;;;7.10;;
72891;SDS011;61032;50.782;6.818;2022-08-19T00:01:17;11.68;;;7.40;;
72891;SDS011;61032;50.782;6.818;2022-08-19T00:02:17;8.13;;;6.57;;
72891;SDS011;61032;50.782;6.818;2022-08-19T00:03:17;9.18;;;6.60;;
72891;SDS011;61032;50.782;6.818;2022-08-19T00:04:18;7.82;;;6.80;;
72891;SDS011;61032;50.782;6.818;2022-08-19T00:05:21;9.57;;;6.45;;
72891;SDS011;61032;50.782;6.818;2022-08-19T00:06:22;8.48;;;6.93;;
72891;SDS011;61032;50.782;6.818;2022-08-19T00:07:22;9.05;;;6.93;;
72891;SDS011;61032;50.782;6.818;2022-08-19T00:08:22;8.35;;;7.18;;
72891;SDS011;61032;50.782;6.818;2022-08-19T00:09:23;7.70;;;6.82;;
72891;SDS011;61032;50.782;6.818;2022-08-19T00:10:24;9.18;;;6.38;;
72891;SDS011;61032;50.782;6.818;2022-08-19T00:11:24;8.30;;;6.97;;
72891;SDS011;61032;50.782;6.818;2022-08-19T00:12:27;10.77;;;6.85;;
72891;SDS011;61032;50.782;6.818;2022-08-19T00:13:27;10.55;;;6.80;;
72891;SDS011;61032;50.782;6.818;2022-08-19T00:14:28;9.60;;;6.82;;
72891;SDS011;61032;50.782;6.818;2022-08-19T00:15:31;9.25;;;6.72;;
72891;SDS011;61032;50.782;6.818;2022-08-19T00:16:31;6.85;;;6.00;;
72891;SDS011;61032;50.782;6.818;2022-08-19T00:17:32;8.40;;;6.70;;
72891;SDS011;61032;50.782;6.818;2022-08-19T00:18:33;7.60;;;6.07;;
72891;SDS011;61032;50.782;6.818;2022-08-19T00:19:34;8.77;;;7.13;;
72891;SDS011;61032;50.782;6.818;2022-08-19T00:20:35;11.05;;;8.20;;
72891;SDS011;61032;50.782;6.818;2022-08-19T00:21:38;9.73;;;7.32;;
72891;SDS011;61032;50.782;6.818;2022-08-19T00:22:39;9.80;;;7.35;;
72891;SDS011;61032;50.782;6.818;2022-08-19T00:23:42;9.32;;;6.53;;
72891;SDS011;61032;50.782;6.818;2022-08-19T00:24:43;11.98;;;7.10;;
72891;SDS011;61032;50.782;6.818;2022-08-19T00:25:44;8.07;;;6.63;;
72891;SDS011;61032;50.782;6.818;2022-08-19T00:26:45;9.68;;;6.68;;
72891;SDS011;61032;50.782;6.818;2022-08-19T00:27:45;11.23;;;7.28;;
72891;SDS011;61032;50.782;6.818;2022-08-19T00:28:46;7.80;;;5.95;;
72891;SDS011;61032;50.782;6.818;2022-08-19T00:29:47;9.40;;;6.10;;
72891;SDS011;61032;50.782;6.818;2022-08-19T00:30:47;8.52;;;6.65;;
72891;SDS011;61032;50.782;6.818;2022-08-19T00:31:47;9.63;;;6.95;;
72891;SDS011;61032;50.782;6.818;2022-08-19T00:32:49;8.60;;;6.28;;
72891;SDS011;61032;50.782;6.818;2022-08-19T00:33:50;8.73;;;7.18;;
72891;SDS011;61032;50.782;6.818;2022-08-19T00:34:50;7.43;;;6.10;;
72891;SDS011;61032;50.782;6.818;2022-08-19T00:35:52;8.18;;;6.68;;
72891;SDS011;61032;50.782;6.818;2022-08-19T00:36:55;7.97;;;6.85;;
72891;SDS011;61032;50.782;6.818;2022-08-19T00:37:56;9.65;;;6.70;;
72891;SDS011;61032;50.782;6.818;2022-08-19T00:38:56;8.30;;;6.00;;
72891;SDS011;61032;50.782;6.818;2022-08-19T00:39:57;7.38;;;6.35;;
72891;SDS011;61032;50.782;6.818;2022-08-19T00:40:57;8.25;;;6.47;;
72891;SDS011;61032;50.782;6.818;2022-08-19T00:41:58;10.00;;;6.85;;
72891;SDS011;61032;50.782;6.818;2022-08-19T00:42:59;9.30;;;7.05;;
72891;SDS011;61032;50.782;6.818;2022-08-19T00:44:05;8.93;;;6.82;;
72891;SDS011;61032;50.782;6.818;2022-08-19T00:45:14;7.80;;;6.07;;
72891;SDS011;61032;50.782;6.818;2022-08-19T00:46:17;8.85;;;6.90;;
72891;SDS011;61032;50.782;6.818;2022-08-19T00:47:18;9.63;;;6.63;;
72891;SDS011;61032;50.782;6.818;2022-08-19T00:48:19;10.40;;;7.28;;
72891;SDS011;61032;50.782;6.818;2022-08-19T00:50:22;10.15;;;7.18;;
72891;SDS011;61032;50.782;6.818;2022-08-19T00:51:23;8.80;;;6.82;;
72891;SDS011;61032;50.782;6.818;2022-08-19T00:52:29;7.38;;;6.43;;
72891;SDS011;61032;50.782;6.818;2022-08-19T00:53:34;10.50;;;6.97;;
72891;SDS011;61032;50.782;6.818;2022-08-19T00:54:36;8.48;;;7.10;;
72891;SDS011;61032;50.782;6.818;2022-08-19T00:55:37;8.90;;;7.00;;
72891;SDS011;61032;50.782;6.818;2022-08-19T00:56:39;8.32;;;6.90;;
72891;SDS011;61032;50.782;6.818;2022-08-19T00:57:42;8.15;;;7.25;;
72891;SDS011;61032;50.782;6.818;2022-08-19T00:58:46;8.45;;;6.95;;
72891;SDS011;61032;50.782;6.818;2022-08-19T00:59:47;8.50;;;7.13;;
72891;SDS011;61032;50.782;6.818;2022-08-19T01:00:52;8.40;;;7.53;;
72891;SDS011;61032;50.782;6.818;2022-08-19T01:01:52;7.10;;;6.30;;
72891;SDS011;61032;50.782;6.818;2022-08-19T01:02:53;10.00;;;6.45;;
72891;SDS011;61032;50.782;6.818;2022-08-19T01:03:54;8.90;;;6.68;;
72891;SDS011;61032;50.782;6.818;2022-08-19T01:04:54;9.23;;;7.00;;
72891;SDS011;61032;50.782;6.818;2022-08-19T01:05:55;8.27;;;7.40;;
72891;SDS011;61032;50.782;6.818;2022-08-19T01:06:56;8.68;;;6.90;;
72891;SDS011;61032;50.782;6.818;2022-08-19T01:07:58;9.32;;;7.53;;
72891;SDS011;61032;50.782;6.818;2022-08-19T01:09:01;8.77;;;7.88;;
72891;SDS011;61032;50.782;6.818;2022-08-19T01:10:03;9.60;;;7.22;;
72891;SDS011;61032;50.782;6.818;2022-08-19T01:11:05;8.27;;;6.85;;
72891;SDS011;61032;50.782;6.818;2022-08-19T01:12:07;9.05;;;7.60;;
72891;SDS011;61032;50.782;6.818;2022-08-19T01:13:08;8.77;;;7.88;;
72891;SDS011;61032;50.782;6.818;2022-08-19T01:14:10;11.20;;;7.30;;
72891;SDS011;61032;50.782;6.818;2022-08-19T01:15:13;8.25;;;7.15;;
72891;SDS011;61032;50.782;6.818;2022-08-19T01:16:17;8.25;;;7.10;;
72891;SDS011;61032;50.782;6.818;2022-08-19T01:17:20;8.63;;;6.97;;
72891;SDS011;61032;50.782;6.818;2022-08-19T01:18:21;8.60;;;7.18;;
72891;SDS011;61032;50.782;6.818;2022-08-19T01:19:25;9.82;;;6.53;;
72891;SDS011;61032;50.782;6.818;2022-08-19T01:20:31;10.82;;;7.20;;
72891;SDS011;61032;50.782;6.818;2022-08-19T01:21:42;10.25;;;7.22;;
72891;SDS011;61032;50.782;6.818;2022-08-19T01:22:49;8.88;;;7.68;;
72891;SDS011;61032;50.782;6.818;2022-08-19T01:23:52;9.68;;;7.38;;
72891;SDS011;61032;50.782;6.818;2022-08-19T01:24:52;9.07;;;6.80;;
72891;SDS011;61032;50.782;6.818;2022-08-19T01:25:52;9.65;;;7.00;;
72891;SDS011;61032;50.782;6.818;2022-08-19T01:26:54;8.80;;;7.20;;
72891;SDS011;61032;50.782;6.818;2022-08-19T01:27:55;8.15;;;6.95;;
72891;SDS011;61032;50.782;6.818;2022-08-19T01:28:56;7.40;;;6.60;;
72891;SDS011;61032;50.782;6.818;2022-08-19T01:29:58;7.20;;;5.90;;
72891;SDS011;61032;50.782;6.818;2022-08-19T01:30:58;8.48;;;7.35;;
72891;SDS011;61032;50.782;6.818;2022-08-19T01:31:58;7.72;;;6.93;;
72891;SDS011;61032;50.782;6.818;2022-08-19T01:33:00;10.05;;;7.10;;
72891;SDS011;61032;50.782;6.818;2022-08-19T01:34:02;8.82;;;6.70;;
72891;SDS011;61032;50.782;6.818;2022-08-19T01:35:04;9.32;;;6.70;;
72891;SDS011;61032;50.782;6.818;2022-08-19T01:36:08;10.02;;;7.07;;
72891;SDS011;61032;50.782;6.818;2022-08-19T01:37:11;8.77;;;7.63;;
72891;SDS011;61032;50.782;6.818;2022-08-19T01:38:22;9.88;;;7.03;;
72891;SDS011;61032;50.782;6.818;2022-08-19T01:39:24;11.23;;;7.65;;
72891;SDS011;61032;50.782;6.818;2022-08-19T01:40:27;11.05;;;7.20;;
72891;SDS011;61032;50.782;6.818;2022-08-19T01:41:30;9.75;;;7.35;;
72891;SDS011;61032;50.782;6.818;2022-08-19T01:42:30;7.82;;;6.72;;
72891;SDS011;61032;50.782;6.818;2022-08-19T01:43:32;10.90;;;7.05;;
72891;SDS011;61032;50.782;6.818;2022-08-19T01:44:33;8.52;;;7.20;;
72891;SDS011;61032;50.782;6.818;2022-08-19T01:45:36;8.23;;;6.05;;
72891;SDS011;61032;50.782;6.818;2022-08-19T01:46:37;10.35;;;7.18;;
72891;SDS011;61032;50.782;6.818;2022-08-19T01:47:38;9.43;;;7.85;;
72891;SDS011;61032;50.782;6.818;2022-08-19T01:48:40;10.38;;;8.10;;
72891;SDS011;61032;50.782;6.818;2022-08-19T01:49:42;8.38;;;7.15;;
72891;SDS011;61032;50.782;6.818;2022-08-19T01:50:42;10.85;;;7.57;;
72891;SDS011;61032;50.782;6.818;2022-08-19T01:51:43;10.43;;;8.15;;
72891;SDS011;61032;50.782;6.818;2022-08-19T01:52:44;8.88;;;7.85;;
72891;SDS011;61032;50.782;6.818;2022-08-19T01:53:47;12.15;;;8.45;;
72891;SDS011;61032;50.782;6.818;2022-08-19T01:54:47;9.93;;;7.82;;
72891;SDS011;61032;50.782;6.818;2022-08-19T01:55:48;10.23;;;7.80;;
72891;SDS011;61032;50.782;6.818;2022-08-19T01:56:49;11.55;;;8.02;;
72891;SDS011;61032;50.782;6.818;2022-08-19T01:57:52;9.63;;;7.82;;
72891;SDS011;61032;50.782;6.818;2022-08-19T01:58:56;9.95;;;7.75;;
72891;SDS011;61032;50.782;6.818;2022-08-19T02:00:01;10.02;;;7.55;;
72891;SDS011;61032;50.782;6.818;2022-08-19T02:01:05;10.23;;;7.15;;
72891;SDS011;61032;50.782;6.818;2022-08-19T02:02:06;9.90;;;7.78;;
72891;SDS011;61032;50.782;6.818;2022-08-19T02:03:10;9.38;;;7.88;;
72891;SDS011;61032;50.782;6.818;2022-08-19T02:04:11;10.70;;;7.93;;
72891;SDS011;61032;50.782;6.818;2022-08-19T02:05:11;10.55;;;8.38;;
72891;SDS011;61032;50.782;6.818;2022-08-19T02:06:12;11.57;;;7.53;;
72891;SDS011;61032;50.782;6.818;2022-08-19T02:07:13;10.93;;;7.95;;
72891;SDS011;61032;50.782;6.818;2022-08-19T02:08:13;9.73;;;7.90;;
72891;SDS011;61032;50.782;6.818;2022-08-19T02:09:14;9.70;;;7.30;;
72891;SDS011;61032;50.782;6.818;2022-08-19T02:10:16;10.55;;;8.43;;
72891;SDS011;61032;50.782;6.818;2022-08-19T02:11:20;9.32;;;8.00;;
72891;SDS011;61032;50.782;6.818;2022-08-19T02:12:26;9.55;;;8.10;;
72891;SDS011;61032;50.782;6.818;2022-08-19T02:13:26;11.18;;;8.55;;
72891;SDS011;61032;50.782;6.818;2022-08-19T02:14:27;10.57;;;8.68;;
72891;SDS011;61032;50.782;6.818;2022-08-19T02:15:28;9.65;;;7.50;;
72891;SDS011;61032;50.782;6.818;2022-08-19T02:16:28;10.15;;;8.10;;
72891;SDS011;61032;50.782;6.818;2022-08-19T02:17:30;9.52;;;8.30;;
72891;SDS011;61032;50.782;6.818;2022-08-19T02:18:31;11.43;;;7.95;;
72891;SDS011;61032;50.782;6.818;2022-08-19T02:19:31;9.65;;;7.60;;
72891;SDS011;61032;50.782;6.818;2022-08-19T02:20:32;12.32;;;8.00;;
72891;SDS011;61032;50.782;6.818;2022-08-19T02:21:33;10.38;;;8.30;;
72891;SDS011;61032;50.782;6.818;2022-08-19T02:22:34;9.88;;;7.30;;
72891;SDS011;61032;50.782;6.818;2022-08-19T02:23:35;11.50;;;8.00;;
72891;SDS011;61032;50.782;6.818;2022-08-19T02:24:35;10.93;;;8.13;;
72891;SDS011;61032;50.782;6.818;2022-08-19T02:25:36;9.15;;;7.80;;
72891;SDS011;61032;50.782;6.818;2022-08-19T02:26:36;11.48;;;9.38;;
72891;SDS011;61032;50.782;6.818;2022-08-19T02:27:37;9.48;;;7.80;;
72891;SDS011;61032;50.782;6.818;2022-08-19T02:28:38;9.85;;;7.22;;
72891;SDS011;61032;50.782;6.818;2022-08-19T02:29:39;10.77;;;8.48;;
72891;SDS011;61032;50.782;6.818;2022-08-19T02:30:40;10.43;;;8.48;;
72891;SDS011;61032;50.782;6.818;2022-08-19T02:31:41;8.13;;;7.30;;
72891;SDS011;61032;50.782;6.818;2022-08-19T02:32:42;10.63;;;8.40;;
72891;SDS011;61032;50.782;6.818;2022-08-19T02:33:42;8.63;;;7.70;;
72891;SDS011;61032;50.782;6.818;2022-08-19T02:34:43;9.63;;;7.53;;
72891;SDS011;61032;50.782;6.818;2022-08-19T02:35:44;11.23;;;8.15;;
72891;SDS011;61032;50.782;6.818;2022-08-19T02:36:46;8.50;;;7.15;;
72891;SDS011;61032;50.782;6.818;2022-08-19T02:37:47;9.93;;;7.25;;
72891;SDS011;61032;50.782;6.818;2022-08-19T02:39:06;9.50;;;7.53;;
72891;SDS011;61032;50.782;6.818;2022-08-19T02:40:06;9.23;;;7.78;;
72891;SDS011;61032;50.782;6.818;2022-08-19T02:41:10;9.73;;;7.78;;
72891;SDS011;61032;50.782;6.818;2022-08-19T02:42:22;11.25;;;8.48;;
72891;SDS011;61032;50.782;6.818;2022-08-19T02:43:23;10.35;;;8.10;;
72891;SDS011;61032;50.782;6.818;2022-08-19T02:44:24;8.80;;;7.43;;
72891;SDS011;61032;50.782;6.818;2022-08-19T02:45:24;9.48;;;7.68;;
72891;SDS011;61032;50.782;6.818;2022-08-19T02:46:26;10.50;;;7.20;;
72891;SDS011;61032;50.782;6.818;2022-08-19T02:47:28;9.30;;;7.47;;
72891;SDS011;61032;50.782;6.818;2022-08-19T02:48:29;9.23;;;7.78;;
72891;SDS011;61032;50.782;6.818;2022-08-19T02:49:30;10.57;;;7.75;;
72891;SDS011;61032;50.782;6.818;2022-08-19T02:50:31;11.88;;;8.80;;
72891;SDS011;61032;50.782;6.818;2022-08-19T02:51:34;9.25;;;8.15;;
72891;SDS011;61032;50.782;6.818;2022-08-19T02:52:36;8.90;;;7.65;;
72891;SDS011;61032;50.782;6.818;2022-08-19T02:53:36;9.25;;;7.82;;
72891;SDS011;61032;50.782;6.818;2022-08-19T02:54:37;10.30;;;8.35;;
72891;SDS011;61032;50.782;6.818;2022-08-19T02:55:47;9.57;;;7.20;;
72891;SDS011;61032;50.782;6.818;2022-08-19T02:56:48;10.15;;;8.40;;
72891;SDS011;61032;50.782;6.818;2022-08-19T02:57:49;11.45;;;8.63;;
72891;SDS011;61032;50.782;6.818;2022-08-19T02:58:49;11.20;;;8.15;;
72891;SDS011;61032;50.782;6.818;2022-08-19T02:59:50;10.60;;;8.13;;
72891;SDS011;61032;50.782;6.818;2022-08-19T03:00:52;10.90;;;8.35;;
72891;SDS011;61032;50.782;6.818;2022-08-19T03:01:54;9.32;;;8.18;;
72891;SDS011;61032;50.782;6.818;2022-08-19T03:02:54;11.38;;;8.13;;
72891;SDS011;61032;50.782;6.818;2022-08-19T03:03:56;11.05;;;8.07;;
72891;SDS011;61032;50.782;6.818;2022-08-19T03:06:08;10.25;;;7.32;;
72891;SDS011;61032;50.782;6.818;2022-08-19T03:07:15;9.90;;;7.15;;
72891;SDS011;61032;50.782;6.818;2022-08-19T03:08:16;10.70;;;8.32;;
72891;SDS011;61032;50.782;6.818;2022-08-19T03:09:17;10.98;;;8.95;;
72891;SDS011;61032;50.782;6.818;2022-08-19T03:10:19;10.13;;;7.65;;
72891;SDS011;61032;50.782;6.818;2022-08-19T03:11:21;11.95;;;8.52;;
72891;SDS011;61032;50.782;6.818;2022-08-19T03:12:24;11.43;;;8.35;;
72891;SDS011;61032;50.782;6.818;2022-08-19T03:13:24;11.32;;;8.50;;
72891;SDS011;61032;50.782;6.818;2022-08-19T03:14:25;9.57;;;8.52;;
72891;SDS011;61032;50.782;6.818;2022-08-19T03:15:25;9.20;;;8.10;;
72891;SDS011;61032;50.782;6.818;2022-08-19T03:16:26;11.20;;;8.57;;
72891;SDS011;61032;50.782;6.818;2022-08-19T03:17:28;11.55;;;8.77;;
72891;SDS011;61032;50.782;6.818;2022-08-19T03:18:29;12.65;;;9.20;;
72891;SDS011;61032;50.782;6.818;2022-08-19T03:19:29;10.07;;;7.60;;
72891;SDS011;61032;50.782;6.818;2022-08-19T03:20:31;13.95;;;8.52;;
72891;SDS011;61032;50.782;6.818;2022-08-19T03:21:32;10.57;;;7.72;;
72891;SDS011;61032;50.782;6.818;2022-08-19T03:22:34;10.15;;;7.25;;
72891;SDS011;61032;50.782;6.818;2022-08-19T03:23:34;11.23;;;8.68;;
72891;SDS011;61032;50.782;6.818;2022-08-19T03:24:35;10.30;;;9.20;;
72891;SDS011;61032;50.782;6.818;2022-08-19T03:25:36;10.23;;;8.45;;
72891;SDS011;61032;50.782;6.818;2022-08-19T03:26:41;10.65;;;9.05;;
72891;SDS011;61032;50.782;6.818;2022-08-19T03:27:42;12.40;;;9.52;;
72891;SDS011;61032;50.782;6.818;2022-08-19T03:28:43;12.07;;;9.15;;
72891;SDS011;61032;50.782;6.818;2022-08-19T03:29:50;11.75;;;9.27;;
72891;SDS011;61032;50.782;6.818;2022-08-19T03:30:58;10.68;;;8.20;;
72891;SDS011;61032;50.782;6.818;2022-08-19T03:32:03;9.80;;;7.85;;
72891;SDS011;61032;50.782;6.818;2022-08-19T03:33:05;10.82;;;8.60;;
72891;SDS011;61032;50.782;6.818;2022-08-19T03:34:06;11.35;;;8.55;;
72891;SDS011;61032;50.782;6.818;2022-08-19T03:35:06;12.15;;;8.88;;
72891;SDS011;61032;50.782;6.818;2022-08-19T03:36:09;10.60;;;8.35;;
72891;SDS011;61032;50.782;6.818;2022-08-19T03:37:11;10.52;;;8.57;;
72891;SDS011;61032;50.782;6.818;2022-08-19T03:38:14;11.20;;;8.82;;
72891;SDS011;61032;50.782;6.818;2022-08-19T03:39:15;12.20;;;8.52;;
72891;SDS011;61032;50.782;6.818;2022-08-19T03:40:15;10.13;;;8.35;;
72891;SDS011;61032;50.782;6.818;2022-08-19T03:41:18;10.00;;;7.55;;
72891;SDS011;61032;50.782;6.818;2022-08-19T03:42:20;10.02;;;8.38;;
72891;SDS011;61032;50.782;6.818;2022-08-19T03:43:20;12.80;;;8.05;;
72891;SDS011;61032;50.782;6.818;2022-08-19T03:44:21;12.30;;;8.43;;
72891;SDS011;61032;50.782;6.818;2022-08-19T03:45:22;12.75;;;8.60;;
72891;SDS011;61032;50.782;6.818;2022-08-19T03:46:25;11.57;;;8.75;;
72891;SDS011;61032;50.782;6.818;2022-08-19T03:47:27;11.43;;;8.45;;
72891;SDS011;61032;50.782;6.818;2022-08-19T03:48:27;10.90;;;8.88;;
72891;SDS011;61032;50.782;6.818;2022-08-19T03:49:28;14.02;;;9.75;;
72891;SDS011;61032;50.782;6.818;2022-08-19T03:50:30;11.15;;;9.23;;
72891;SDS011;61032;50.782;6.818;2022-08-19T03:51:32;10.73;;;9.10;;
72891;SDS011;61032;50.782;6.818;2022-08-19T03:52:34;11.10;;;8.65;;
72891;SDS011;61032;50.782;6.818;2022-08-19T03:53:35;12.68;;;9.02;;
72891;SDS011;61032;50.782;6.818;2022-08-19T03:54:36;13.93;;;9.50;;
72891;SDS011;61032;50.782;6.818;2022-08-19T03:55:41;11.60;;;7.97;;
72891;SDS011;61032;50.782;6.818;2022-08-19T03:56:42;12.40;;;10.13;;
72891;SDS011;61032;50.782;6.818;2022-08-19T03:57:44;11.07;;;9.35;;
72891;SDS011;61032;50.782;6.818;2022-08-19T03:58:45;11.18;;;9.27;;
72891;SDS011;61032;50.782;6.818;2022-08-19T03:59:46;11.75;;;8.88;;
72891;SDS011;61032;50.782;6.818;2022-08-19T04:00:46;10.80;;;8.70;;
72891;SDS011;61032;50.782;6.818;2022-08-19T04:01:47;10.73;;;8.15;;
72891;SDS011;61032;50.782;6.818;2022-08-19T04:02:47;11.25;;;8.98;;
72891;SDS011;61032;50.782;6.818;2022-08-19T04:03:48;10.52;;;8.93;;
72891;SDS011;61032;50.782;6.818;2022-08-19T04:04:49;11.02;;;8.77;;
72891;SDS011;61032;50.782;6.818;2022-08-19T04:05:53;13.57;;;9.05;;
72891;SDS011;61032;50.782;6.818;2022-08-19T04:06:53;12.13;;;9.65;;
72891;SDS011;61032;50.782;6.818;2022-08-19T04:07:54;10.32;;;8.35;;
72891;SDS011;61032;50.782;6.818;2022-08-19T04:08:59;12.63;;;9.80;;
72891;SDS011;61032;50.782;6.818;2022-08-19T04:10:01;11.43;;;8.40;;
72891;SDS011;61032;50.782;6.818;2022-08-19T04:11:05;13.63;;;9.75;;
72891;SDS011;61032;50.782;6.818;2022-08-19T04:12:07;12.35;;;10.05;;
72891;SDS011;61032;50.782;6.818;2022-08-19T04:13:08;11.32;;;9.90;;
72891;SDS011;61032;50.782;6.818;2022-08-19T04:14:09;12.43;;;9.88;;
72891;SDS011;61032;50.782;6.818;2022-08-19T04:15:11;13.60;;;10.05;;
72891;SDS011;61032;50.782;6.818;2022-08-19T04:16:12;11.80;;;9.57;;
72891;SDS011;61032;50.782;6.818;2022-08-19T04:17:12;14.25;;;10.02;;
72891;SDS011;61032;50.782;6.818;2022-08-19T04:18:13;13.35;;;10.43;;
72891;SDS011;61032;50.782;6.818;2022-08-19T04:19:15;14.05;;;10.05;;
72891;SDS011;61032;50.782;6.818;2022-08-19T04:20:16;13.55;;;9.65;;
72891;SDS011;61032;50.782;6.818;2022-08-19T04:21:18;14.60;;;9.77;;
72891;SDS011;61032;50.782;6.818;2022-08-19T04:22:21;11.00;;;9.15;;
72891;SDS011;61032;50.782;6.818;2022-08-19T04:23:21;11.52;;;8.93;;
72891;SDS011;61032;50.782;6.818;2022-08-19T04:24:22;12.52;;;10.07;;
72891;SDS011;61032;50.782;6.818;2022-08-19T04:25:22;10.52;;;8.70;;
72891;SDS011;61032;50.782;6.818;2022-08-19T04:26:24;13.73;;;9.18;;
72891;SDS011;61032;50.782;6.818;2022-08-19T04:27:27;10.88;;;9.20;;
72891;SDS011;61032;50.782;6.818;2022-08-19T04:28:28;11.05;;;8.98;;
72891;SDS011;61032;50.782;6.818;2022-08-19T04:29:28;13.10;;;9.45;;
72891;SDS011;61032;50.782;6.818;2022-08-19T04:30:30;11.98;;;9.13;;
72891;SDS011;61032;50.782;6.818;2022-08-19T04:31:31;11.43;;;9.90;;
72891;SDS011;61032;50.782;6.818;2022-08-19T04:32:34;11.30;;;9.32;;
72891;SDS011;61032;50.782;6.818;2022-08-19T04:33:35;13.75;;;10.02;;
72891;SDS011;61032;50.782;6.818;2022-08-19T04:34:36;13.65;;;8.90;;
72891;SDS011;61032;50.782;6.818;2022-08-19T04:35:40;13.63;;;9.95;;
72891;SDS011;61032;50.782;6.818;2022-08-19T04:36:43;14.27;;;9.77;;
72891;SDS011;61032;50.782;6.818;2022-08-19T04:37:44;11.77;;;9.23;;
72891;SDS011;61032;50.782;6.818;2022-08-19T04:38:45;12.43;;;9.25;;
72891;SDS011;61032;50.782;6.818;2022-08-19T04:39:45;14.98;;;9.32;;
72891;SDS011;61032;50.782;6.818;2022-08-19T04:41:04;11.98;;;9.38;;
72891;SDS011;61032;50.782;6.818;2022-08-19T04:42:23;12.48;;;9.90;;
72891;SDS011;61032;50.782;6.818;2022-08-19T04:43:39;15.60;;;9.93;;
72891;SDS011;61032;50.782;6.818;2022-08-19T04:44:39;14.82;;;9.75;;
72891;SDS011;61032;50.782;6.818;2022-08-19T04:45:39;13.82;;;9.95;;
72891;SDS011;61032;50.782;6.818;2022-08-19T04:46:40;13.32;;;9.43;;
72891;SDS011;61032;50.782;6.818;2022-08-19T04:47:41;16.15;;;10.13;;
72891;SDS011;61032;50.782;6.818;2022-08-19T04:48:42;14.43;;;10.35;;
72891;SDS011;61032;50.782;6.818;2022-08-19T04:49:43;14.43;;;10.07;;
72891;SDS011;61032;50.782;6.818;2022-08-19T04:50:43;14.65;;;10.98;;
72891;SDS011;61032;50.782;6.818;2022-08-19T04:51:45;14.95;;;11.10;;
72891;SDS011;61032;50.782;6.818;2022-08-19T04:52:50;15.27;;;10.60;;
72891;SDS011;61032;50.782;6.818;2022-08-19T04:53:51;15.85;;;11.43;;
72891;SDS011;61032;50.782;6.818;2022-08-19T04:54:52;15.02;;;11.23;;
72891;SDS011;61032;50.782;6.818;2022-08-19T04:55:55;13.98;;;10.73;;
72891;SDS011;61032;50.782;6.818;2022-08-19T04:57:57;12.73;;;9.75;;
72891;SDS011;61032;50.782;6.818;2022-08-19T04:58:58;16.45;;;9.98;;
72891;SDS011;61032;50.782;6.818;2022-08-19T05:00:03;13.50;;;10.98;;
72891;SDS011;61032;50.782;6.818;2022-08-19T05:01:04;18.38;;;10.35;;
72891;SDS011;61032;50.782;6.818;2022-08-19T05:02:04;14.68;;;10.63;;
72891;SDS011;61032;50.782;6.818;2022-08-19T05:03:08;14.82;;;10.65;;
72891;SDS011;61032;50.782;6.818;2022-08-19T05:04:09;17.33;;;10.52;;
72891;SDS011;61032;50.782;6.818;2022-08-19T05:05:09;16.85;;;11.70;;
72891;SDS011;61032;50.782;6.818;2022-08-19T05:06:12;13.52;;;10.88;;
72891;SDS011;61032;50.782;6.818;2022-08-19T05:07:14;15.73;;;11.60;;
72891;SDS011;61032;50.782;6.818;2022-08-19T05:08:15;16.48;;;12.15;;
72891;SDS011;61032;50.782;6.818;2022-08-19T05:09:19;19.35;;;11.13;;
72891;SDS011;61032;50.782;6.818;2022-08-19T05:10:21;17.98;;;12.30;;
72891;SDS011;61032;50.782;6.818;2022-08-19T05:11:23;17.13;;;12.60;;
72891;SDS011;61032;50.782;6.818;2022-08-19T05:12:28;17.77;;;12.40;;
72891;SDS011;61032;50.782;6.818;2022-08-19T05:13:28;16.38;;;11.70;;
72891;SDS011;61032;50.782;6.818;2022-08-19T05:14:28;14.63;;;10.50;;
72891;SDS011;61032;50.782;6.818;2022-08-19T05:15:29;17.58;;;11.15;;
72891;SDS011;61032;50.782;6.818;2022-08-19T05:16:30;14.00;;;10.50;;
72891;SDS011;61032;50.782;6.818;2022-08-19T05:17:30;14.13;;;10.05;;
72891;SDS011;61032;50.782;6.818;2022-08-19T05:18:31;14.85;;;9.82;;
72891;SDS011;61032;50.782;6.818;2022-08-19T05:19:50;20.15;;;12.23;;
72891;SDS011;61032;50.782;6.818;2022-08-19T05:21:10;17.67;;;13.30;;
72891;SDS011;61032;50.782;6.818;2022-08-19T05:22:30;20.55;;;14.73;;
72891;SDS011;61032;50.782;6.818;2022-08-19T05:23:35;21.33;;;14.70;;
72891;SDS011;61032;50.782;6.818;2022-08-19T05:24:35;22.25;;;16.02;;
72891;SDS011;61032;50.782;6.818;2022-08-19T05:25:38;19.85;;;14.52;;
72891;SDS011;61032;50.782;6.818;2022-08-19T05:26:40;22.02;;;15.10;;
72891;SDS011;61032;50.782;6.818;2022-08-19T05:27:45;20.77;;;15.35;;
72891;SDS011;61032;50.782;6.818;2022-08-19T05:28:45;22.25;;;14.90;;
72891;SDS011;61032;50.782;6.818;2022-08-19T05:29:46;25.20;;;16.17;;
72891;SDS011;61032;50.782;6.818;2022-08-19T05:30:46;22.55;;;15.63;;
72891;SDS011;61032;50.782;6.818;2022-08-19T05:31:48;23.13;;;14.77;;
72891;SDS011;61032;50.782;6.818;2022-08-19T05:32:51;22.50;;;16.27;;
72891;SDS011;61032;50.782;6.818;2022-08-19T05:33:51;21.35;;;15.20;;
72891;SDS011;61032;50.782;6.818;2022-08-19T05:34:52;22.25;;;15.52;;
72891;SDS011;61032;50.782;6.818;2022-08-19T05:35:52;24.63;;;17.52;;
72891;SDS011;61032;50.782;6.818;2022-08-19T05:36:54;21.77;;;15.57;;
72891;SDS011;61032;50.782;6.818;2022-08-19T05:37:56;22.70;;;16.17;;
72891;SDS011;61032;50.782;6.818;2022-08-19T05:38:57;22.77;;;15.82;;
72891;SDS011;61032;50.782;6.818;2022-08-19T05:39:57;22.77;;;15.38;;
72891;SDS011;61032;50.782;6.818;2022-08-19T05:40:57;21.92;;;14.85;;
72891;SDS011;61032;50.782;6.818;2022-08-19T05:41:59;18.77;;;13.88;;
72891;SDS011;61032;50.782;6.818;2022-08-19T05:43:03;19.50;;;12.82;;
72891;SDS011;61032;50.782;6.818;2022-08-19T05:44:04;16.00;;;12.75;;
72891;SDS011;61032;50.782;6.818;2022-08-19T05:45:09;15.18;;;12.15;;
72891;SDS011;61032;50.782;6.818;2022-08-19T05:46:15;18.60;;;12.68;;
72891;SDS011;61032;50.782;6.818;2022-08-19T05:47:18;16.30;;;12.15;;
72891;SDS011;61032;50.782;6.818;2022-08-19T05:48:19;22.10;;;14.13;;
72891;SDS011;61032;50.782;6.818;2022-08-19T05:49:21;21.67;;;12.48;;
72891;SDS011;61032;50.782;6.818;2022-08-19T05:50:22;19.73;;;13.45;;
72891;SDS011;61032;50.782;6.818;2022-08-19T05:51:23;20.00;;;13.25;;
72891;SDS011;61032;50.782;6.818;2022-08-19T05:52:24;22.25;;;14.23;;
72891;SDS011;61032;50.782;6.818;2022-08-19T05:53:27;21.00;;;13.30;;
72891;SDS011;61032;50.782;6.818;2022-08-19T05:54:27;22.92;;;14.65;;
72891;SDS011;61032;50.782;6.818;2022-08-19T05:55:27;21.65;;;14.95;;
72891;SDS011;61032;50.782;6.818;2022-08-19T05:56:28;28.65;;;14.95;;
72891;SDS011;61032;50.782;6.818;2022-08-19T05:57:30;23.05;;;14.90;;
72891;SDS011;61032;50.782;6.818;2022-08-19T05:58:30;20.45;;;13.60;;
72891;SDS011;61032;50.782;6.818;2022-08-19T05:59:32;28.85;;;14.07;;
72891;SDS011;61032;50.782;6.818;2022-08-19T06:00:35;25.95;;;15.50;;
72891;SDS011;61032;50.782;6.818;2022-08-19T06:01:37;22.42;;;15.25;;
72891;SDS011;61032;50.782;6.818;2022-08-19T06:02:40;24.98;;;16.55;;
72891;SDS011;61032;50.782;6.818;2022-08-19T06:03:41;26.77;;;14.95;;
72891;SDS011;61032;50.782;6.818;2022-08-19T06:04:42;23.15;;;14.93;;
72891;SDS011;61032;50.782;6.818;2022-08-19T06:05:45;25.98;;;15.18;;
72891;SDS011;61032;50.782;6.818;2022-08-19T06:06:49;24.33;;;16.13;;
72891;SDS011;61032;50.782;6.818;2022-08-19T06:07:51;26.75;;;16.45;;
72891;SDS011;61032;50.782;6.818;2022-08-19T06:08:52;25.50;;;16.60;;
72891;SDS011;61032;50.782;6.818;2022-08-19T06:09:52;24.35;;;17.42;;
72891;SDS011;61032;50.782;6.818;2022-08-19T06:10:53;29.30;;;20.25;;
72891;SDS011;61032;50.782;6.818;2022-08-19T06:11:55;32.05;;;19.20;;